sensor_id;sensor_type;location;lat;lon;timestamp;pressure;altitude;pressure_sealevel;temperature;humidity
10476;BME280;26166;48.264;11.436;2022-08-19T00:00:55;95687.78;;;23.28;55.88
10476;BME280;26166;48.264;11.436;2022-08-19T00:04:01;95702.25;;;23.27;55.61
10476;BME280;26166;48.264;11.436;2022-08-19T00:07:02;95705.75;;;23.27;55.70
10476;BME280;26166;48.264;11.436;2022-08-19T00:10:03;95708.41;;;23.27;55.75
10476;BME280;26166;48.264;11.436;2022-08-19T00:13:04;95712.97;;;23.27;55.81
10476;BME280;26166;48.264;11.436;2022-08-19T00:16:04;95713.78;;;23.27;55.74
10476;BME280;26166;48.264;11.436;2022-08-19T00:19:05;95698.78;;;23.26;55.73
10476;BME280;26166;48.264;11.436;2022-08-19T00:22:06;95699.59;;;23.27;55.65
10476;BME280;26166;48.264;11.436;2022-08-19T00:25:08;95703.06;;;23.27;55.82
10476;BME280;26166;48.264;11.436;2022-08-19T00:28:08;95689.66;;;23.27;55.92
10476;BME280;26166;48.264;11.436;2022-08-19T00:31:08;95693.41;;;23.26;55.93
10476;BME280;26166;48.264;11.436;2022-08-19T00:34:09;95688.88;;;23.27;55.67
10476;BME280;26166;48.264;11.436;2022-08-19T00:37:10;95677.34;;;23.26;55.71
10476;BME280;26166;48.264;11.436;2022-08-19T00:40:10;95666.63;;;23.26;55.94
10476;BME280;26166;48.264;11.436;2022-08-19T00:43:12;95655.91;;;23.26;55.75
10476;BME280;26166;48.264;11.436;2022-08-19T00:46:15;95666.63;;;23.26;55.78
10476;BME280;26166;48.264;11.436;2022-08-19T00:49:17;95675.75;;;23.25;55.85
10476;BME280;26166;48.264;11.436;2022-08-19T00:52:21;95673.84;;;23.26;55.93
10476;BME280;26166;48.264;11.436;2022-08-19T00:55:23;95664.22;;;23.25;56.04
10476;BME280;26166;48.264;11.436;2022-08-19T00:58:24;95660.72;;;23.24;56.12
10476;BME280;26166;48.264;11.436;2022-08-19T01:01:27;95648.13;;;23.25;56.00
10476;BME280;26166;48.264;11.436;2022-08-19T01:04:27;95647.34;;;23.24;55.76
10476;BME280;26166;48.264;11.436;2022-08-19T01:07:27;95656.97;;;23.25;55.85
10476;BME280;26166;48.264;11.436;2022-08-19T01:10:29;95665.03;;;23.25;55.88
10476;BME280;26166;48.264;11.436;2022-08-19T01:13:30;95675.75;;;23.25;56.00
10476;BME280;26166;48.264;11.436;2022-08-19T01:16:32;95659.66;;;23.25;55.80
10476;BME280;26166;48.264;11.436;2022-08-19T01:19:35;95644.38;;;23.26;55.82
10476;BME280;26166;48.264;11.436;2022-08-19T01:22:38;95637.44;;;23.25;56.00
10476;BME280;26166;48.264;11.436;2022-08-19T01:25:49;95648.94;;;23.25;55.82
10476;BME280;26166;48.264;11.436;2022-08-19T01:28:51;95663.41;;;23.24;55.71
10476;BME280;26166;48.264;11.436;2022-08-19T01:31:51;95665.03;;;23.25;55.77
10476;BME280;26166;48.264;11.436;2022-08-19T01:34:53;95662.34;;;23.25;55.94
10476;BME280;26166;48.264;11.436;2022-08-19T01:37:55;95654.31;;;23.25;55.88
10476;BME280;26166;48.264;11.436;2022-08-19T01:40:56;95648.94;;;23.25;55.94
10476;BME280;26166;48.264;11.436;2022-08-19T01:43:56;95661.78;;;23.23;55.89
10476;BME280;26166;48.264;11.436;2022-08-19T01:46:56;95667.13;;;23.23;56.15
10476;BME280;26166;48.264;11.436;2022-08-19T01:49:57;95672.50;;;23.23;55.93
10476;BME280;26166;48.264;11.436;2022-08-19T01:52:58;95680.53;;;23.23;56.09
10476;BME280;26166;48.264;11.436;2022-08-19T01:55:59;95678.66;;;23.24;55.78
10476;BME280;26166;48.264;11.436;2022-08-19T01:59:03;95680.53;;;23.23;55.78
10476;BME280;26166;48.264;11.436;2022-08-19T02:02:04;95690.22;;;23.24;55.76
10476;BME280;26166;48.264;11.436;2022-08-19T02:05:07;95682.16;;;23.24;55.92
10476;BME280;26166;48.264;11.436;2022-08-19T02:08:08;95666.91;;;23.25;55.84
10476;BME280;26166;48.264;11.436;2022-08-19T02:11:08;95655.38;;;23.24;55.95
10476;BME280;26166;48.264;11.436;2022-08-19T02:14:09;95645.69;;;23.23;55.71
10476;BME280;26166;48.264;11.436;2022-08-19T02:17:09;95653.75;;;23.23;55.91
10476;BME280;26166;48.264;11.436;2022-08-19T02:20:09;95660.97;;;23.23;56.04
10476;BME280;26166;48.264;11.436;2022-08-19T02:23:11;95675.16;;;23.23;56.01
10476;BME280;26166;48.264;11.436;2022-08-19T02:26:12;95666.34;;;23.23;55.89
10476;BME280;26166;48.264;11.436;2022-08-19T02:29:12;95680.53;;;23.23;55.81
10476;BME280;26166;48.264;11.436;2022-08-19T02:32:12;95683.22;;;23.23;55.95
10476;BME280;26166;48.264;11.436;2022-08-19T02:35:13;95695.00;;;23.22;55.98
10476;BME280;26166;48.264;11.436;2022-08-19T02:38:13;95692.88;;;23.24;55.93
10476;BME280;26166;48.264;11.436;2022-08-19T02:41:26;95674.13;;;23.24;56.04
10476;BME280;26166;48.264;11.436;2022-08-19T02:44:27;95677.63;;;23.25;55.95
10476;BME280;26166;48.264;11.436;2022-08-19T02:47:28;95686.44;;;23.25;55.60
10476;BME280;26166;48.264;11.436;2022-08-19T02:50:28;95686.44;;;23.25;55.56
10476;BME280;26166;48.264;11.436;2022-08-19T02:53:29;95675.75;;;23.25;55.73
10476;BME280;26166;48.264;11.436;2022-08-19T02:56:29;95673.59;;;23.27;55.96
10476;BME280;26166;48.264;11.436;2022-08-19T02:59:31;95662.06;;;23.27;55.65
10476;BME280;26166;48.264;11.436;2022-08-19T03:02:31;95649.47;;;23.27;55.94
10476;BME280;26166;48.264;11.436;2022-08-19T03:05:31;95636.06;;;23.27;55.89
10476;BME280;26166;48.264;11.436;2022-08-19T03:08:32;95642.00;;;23.29;56.04
10476;BME280;26166;48.264;11.436;2022-08-19T03:11:32;95652.72;;;23.29;55.97
10476;BME280;26166;48.264;11.436;2022-08-19T03:14:33;95642.00;;;23.29;55.75
10476;BME280;26166;48.264;11.436;2022-08-19T03:17:34;95635.00;;;23.28;56.09
10476;BME280;26166;48.264;11.436;2022-08-19T03:20:39;95654.59;;;23.29;55.83
10476;BME280;26166;48.264;11.436;2022-08-19T03:23:39;95660.75;;;23.29;55.89
10476;BME280;26166;48.264;11.436;2022-08-19T03:26:40;95651.09;;;23.28;56.15
10476;BME280;26166;48.264;11.436;2022-08-19T03:29:41;95665.31;;;23.29;55.94
10476;BME280;26166;48.264;11.436;2022-08-19T03:32:42;95680.56;;;23.28;56.20
10476;BME280;26166;48.264;11.436;2022-08-19T03:35:43;95675.19;;;23.28;55.95
10476;BME280;26166;48.264;11.436;2022-08-19T03:38:45;95684.88;;;23.29;56.30
10476;BME280;26166;48.264;11.436;2022-08-19T03:41:46;95693.72;;;23.30;56.22
10476;BME280;26166;48.264;11.436;2022-08-19T03:44:47;95690.75;;;23.31;57.56
10476;BME280;26166;48.264;11.436;2022-08-19T03:47:47;95686.75;;;23.34;57.36
10476;BME280;26166;48.264;11.436;2022-08-19T03:50:47;95687.28;;;23.36;57.26
10476;BME280;26166;48.264;11.436;2022-08-19T03:53:47;95671.78;;;23.38;57.38
10476;BME280;26166;48.264;11.436;2022-08-19T03:56:48;95669.91;;;23.38;56.99
10476;BME280;26166;48.264;11.436;2022-08-19T03:59:49;95670.97;;;23.37;56.94
10476;BME280;26166;48.264;11.436;2022-08-19T04:02:49;95668.28;;;23.37;57.05
10476;BME280;26166;48.264;11.436;2022-08-19T04:05:50;95661.31;;;23.36;56.73
10476;BME280;26166;48.264;11.436;2022-08-19T04:08:51;95666.94;;;23.35;56.84
10476;BME280;26166;48.264;11.436;2022-08-19T04:11:52;95665.31;;;23.34;57.01
10476;BME280;26166;48.264;11.436;2022-08-19T04:14:55;95667.22;;;23.33;56.83
10476;BME280;26166;48.264;11.436;2022-08-19T04:17:55;95662.88;;;23.32;56.88
10476;BME280;26166;48.264;11.436;2022-08-19T04:20:56;95670.94;;;23.32;56.77
10476;BME280;26166;48.264;11.436;2022-08-19T04:23:56;95665.56;;;23.32;56.77
10476;BME280;26166;48.264;11.436;2022-08-19T04:26:58;95665.56;;;23.32;56.64
10476;BME280;26166;48.264;11.436;2022-08-19T04:29:59;95660.22;;;23.32;56.66
10476;BME280;26166;48.264;11.436;2022-08-19T04:32:59;95657.53;;;23.32;56.45
10476;BME280;26166;48.264;11.436;2022-08-19T04:35:59;95657.28;;;23.34;56.91
10476;BME280;26166;48.264;11.436;2022-08-19T04:39:01;95658.91;;;23.35;57.80
10476;BME280;26166;48.264;11.436;2022-08-19T04:42:02;95671.81;;;23.53;59.69
10476;BME280;26166;48.264;11.436;2022-08-19T04:45:21;95669.09;;;24.26;59.17
10476;BME280;26166;48.264;11.436;2022-08-19T04:48:21;95665.72;;;25.47;56.96
10476;BME280;26166;48.264;11.436;2022-08-19T04:51:26;95673.81;;;26.40;54.55
10476;BME280;26166;48.264;11.436;2022-08-19T04:54:26;95680.13;;;27.23;51.96
10476;BME280;26166;48.264;11.436;2022-08-19T04:57:26;95686.50;;;27.80;50.28
10476;BME280;26166;48.264;11.436;2022-08-19T05:00:26;95693.56;;;28.38;48.96
10476;BME280;26166;48.264;11.436;2022-08-19T05:03:27;95688.34;;;28.60;48.60
10476;BME280;26166;48.264;11.436;2022-08-19T05:06:27;95693.81;;;28.88;46.88
10476;BME280;26166;48.264;11.436;2022-08-19T05:09:28;95700.06;;;28.51;47.01
10476;BME280;26166;48.264;11.436;2022-08-19T05:12:29;95707.22;;;28.23;47.41
10476;BME280;26166;48.264;11.436;2022-08-19T05:15:29;95723.50;;;27.99;48.21
10476;BME280;26166;48.264;11.436;2022-08-19T05:18:29;95720.38;;;27.62;48.57
10476;BME280;26166;48.264;11.436;2022-08-19T05:21:48;95718.44;;;27.20;49.59
10476;BME280;26166;48.264;11.436;2022-08-19T05:25:08;95733.34;;;26.44;51.45
10476;BME280;26166;48.264;11.436;2022-08-19T05:28:09;95732.94;;;26.11;52.04
10476;BME280;26166;48.264;11.436;2022-08-19T05:31:10;95734.97;;;25.90;52.46
10476;BME280;26166;48.264;11.436;2022-08-19T05:34:10;95726.41;;;25.73;52.82
10476;BME280;26166;48.264;11.436;2022-08-19T05:37:10;95710.56;;;25.61;53.06
10476;BME280;26166;48.264;11.436;2022-08-19T05:40:11;95717.31;;;25.49;53.51
10476;BME280;26166;48.264;11.436;2022-08-19T05:43:11;95707.69;;;25.42;53.52
10476;BME280;26166;48.264;11.436;2022-08-19T05:46:18;95698.03;;;25.31;53.86
10476;BME280;26166;48.264;11.436;2022-08-19T05:49:20;95701.28;;;25.18;54.08
10476;BME280;26166;48.264;11.436;2022-08-19T05:52:21;95703.19;;;25.12;54.38
10476;BME280;26166;48.264;11.436;2022-08-19T05:55:21;95698.59;;;25.13;54.18
10476;BME280;26166;48.264;11.436;2022-08-19T05:58:22;95707.50;;;25.08;54.28
10476;BME280;26166;48.264;11.436;2022-08-19T06:01:24;95703.44;;;25.01;54.35
10476;BME280;26166;48.264;11.436;2022-08-19T06:04:24;95704.00;;;24.92;54.49
10476;BME280;26166;48.264;11.436;2022-08-19T06:07:25;95701.88;;;24.84;54.68
10476;BME280;26166;48.264;11.436;2022-08-19T06:10:25;95694.34;;;24.76;54.86
10476;BME280;26166;48.264;11.436;2022-08-19T06:13:26;95701.06;;;24.69;55.21
10476;BME280;26166;48.264;11.436;2022-08-19T06:16:26;95705.06;;;24.61;55.28
10476;BME280;26166;48.264;11.436;2022-08-19T06:19:27;95698.09;;;24.55;55.33
10476;BME280;26166;48.264;11.436;2022-08-19T06:22:29;95709.94;;;24.49;55.49
10476;BME280;26166;48.264;11.436;2022-08-19T06:25:29;95725.19;;;24.43;55.73
10476;BME280;26166;48.264;11.436;2022-08-19T06:28:30;95728.69;;;24.38;55.67
10476;BME280;26166;48.264;11.436;2022-08-19T06:31:30;95725.97;;;24.33;55.71
10476;BME280;26166;48.264;11.436;2022-08-19T06:34:33;95725.16;;;24.28;55.81
10476;BME280;26166;48.264;11.436;2022-08-19T06:37:34;95730.25;;;24.24;56.03
10476;BME280;26166;48.264;11.436;2022-08-19T06:40:34;95729.16;;;24.20;56.14
10476;BME280;26166;48.264;11.436;2022-08-19T06:43:35;95728.88;;;24.16;56.23
10476;BME280;26166;48.264;11.436;2022-08-19T06:46:36;95725.69;;;24.14;56.25
10476;BME280;26166;48.264;11.436;2022-08-19T06:49:37;95735.84;;;24.12;56.16
10476;BME280;26166;48.264;11.436;2022-08-19T06:52:37;95738.28;;;24.09;56.32
10476;BME280;26166;48.264;11.436;2022-08-19T06:55:37;95735.03;;;24.07;56.37
10476;BME280;26166;48.264;11.436;2022-08-19T06:58:39;95734.75;;;24.03;56.42
10476;BME280;26166;48.264;11.436;2022-08-19T07:01:41;95733.44;;;24.01;56.51
10476;BME280;26166;48.264;11.436;2022-08-19T07:04:41;95727.50;;;23.99;56.54
10476;BME280;26166;48.264;11.436;2022-08-19T07:07:42;95726.19;;;23.96;56.60
10476;BME280;26166;48.264;11.436;2022-08-19T07:10:44;95718.38;;;23.95;56.67
10476;BME280;26166;48.264;11.436;2022-08-19T07:13:44;95722.41;;;23.92;56.55
10476;BME280;26166;48.264;11.436;2022-08-19T07:16:47;95723.72;;;23.89;56.56
10476;BME280;26166;48.264;11.436;2022-08-19T07:19:47;95725.88;;;23.87;56.89
10476;BME280;26166;48.264;11.436;2022-08-19T07:22:50;95727.19;;;23.85;56.68
10476;BME280;26166;48.264;11.436;2022-08-19T07:25:50;95722.91;;;23.84;56.75
10476;BME280;26166;48.264;11.436;2022-08-19T07:28:51;95713.50;;;23.81;56.84
10476;BME280;26166;48.264;11.436;2022-08-19T07:31:51;95702.25;;;23.79;56.90
10476;BME280;26166;48.264;11.436;2022-08-19T07:34:52;95711.38;;;23.78;56.99
10476;BME280;26166;48.264;11.436;2022-08-19T07:37:52;95711.38;;;23.78;56.87
10476;BME280;26166;48.264;11.436;2022-08-19T07:40:52;95700.88;;;23.77;56.90
10476;BME280;26166;48.264;11.436;2022-08-19T07:43:54;95690.44;;;23.75;56.94
10476;BME280;26166;48.264;11.436;2022-08-19T07:46:55;95695.00;;;23.75;57.10
10476;BME280;26166;48.264;11.436;2022-08-19T07:49:56;95692.59;;;23.73;56.93
10476;BME280;26166;48.264;11.436;2022-08-19T07:52:56;95690.94;;;23.72;57.00
10476;BME280;26166;48.264;11.436;2022-08-19T07:55:57;95697.38;;;23.71;56.86
10476;BME280;26166;48.264;11.436;2022-08-19T07:59:03;95702.22;;;23.69;57.20
10476;BME280;26166;48.264;11.436;2022-08-19T08:02:05;95702.22;;;23.69;57.19
10476;BME280;26166;48.264;11.436;2022-08-19T08:05:05;95699.78;;;23.67;57.28
10476;BME280;26166;48.264;11.436;2022-08-19T08:08:25;95692.81;;;23.66;57.22
10476;BME280;26166;48.264;11.436;2022-08-19T08:11:46;95696.56;;;23.65;57.44
10476;BME280;26166;48.264;11.436;2022-08-19T08:14:52;95706.50;;;23.65;57.31
10476;BME280;26166;48.264;11.436;2022-08-19T08:17:52;95704.81;;;23.64;57.57
10476;BME280;26166;48.264;11.436;2022-08-19T08:20:53;95707.50;;;23.64;57.33
10476;BME280;26166;48.264;11.436;2022-08-19T08:23:53;95704.81;;;23.64;57.41
10476;BME280;26166;48.264;11.436;2022-08-19T08:26:55;95706.72;;;23.63;57.48
10476;BME280;26166;48.264;11.436;2022-08-19T08:29:56;95707.78;;;23.62;57.56
10476;BME280;26166;48.264;11.436;2022-08-19T08:32:57;95719.31;;;23.63;57.75
10476;BME280;26166;48.264;11.436;2022-08-19T08:35:57;95722.00;;;23.63;57.50
10476;BME280;26166;48.264;11.436;2022-08-19T08:38:57;95725.47;;;23.63;57.46
10476;BME280;26166;48.264;11.436;2022-08-19T08:42:40;95722.25;;;23.61;57.73
10476;BME280;26166;48.264;11.436;2022-08-19T08:45:20;95724.94;;;23.61;57.82
10476;BME280;26166;48.264;11.436;2022-08-19T08:48:30;95721.47;;;23.61;57.61
10476;BME280;26166;48.264;11.436;2022-08-19T08:51:37;95738.63;;;23.60;57.62
10476;BME280;26166;48.264;11.436;2022-08-19T08:54:46;95728.69;;;23.60;57.90
10476;BME280;26166;48.264;11.436;2022-08-19T09:00:47;95741.28;;;23.60;57.97
10476;BME280;26166;48.264;11.436;2022-08-19T09:03:48;95746.66;;;23.60;57.99
10476;BME280;26166;48.264;11.436;2022-08-19T09:06:53;95742.34;;;23.59;57.98
10476;BME280;26166;48.264;11.436;2022-08-19T09:09:56;95743.97;;;23.60;57.84
10476;BME280;26166;48.264;11.436;2022-08-19T09:16:18;95745.81;;;23.59;58.15
10476;BME280;26166;48.264;11.436;2022-08-19T09:19:20;95750.38;;;23.59;58.10
10476;BME280;26166;48.264;11.436;2022-08-19T09:22:21;95746.66;;;23.60;58.07
10476;BME280;26166;48.264;11.436;2022-08-19T09:25:21;95745.03;;;23.59;58.21
10476;BME280;26166;48.264;11.436;2022-08-19T09:28:22;95744.22;;;23.58;58.08
10476;BME280;26166;48.264;11.436;2022-08-19T09:31:23;95750.38;;;23.59;57.86
10476;BME280;26166;48.264;11.436;2022-08-19T09:34:23;95748.78;;;23.58;58.25
10476;BME280;26166;48.264;11.436;2022-08-19T09:37:24;95744.22;;;23.58;58.26
10476;BME280;26166;48.264;11.436;2022-08-19T09:40:25;95748.78;;;23.58;58.29
10476;BME280;26166;48.264;11.436;2022-08-19T09:43:25;95747.16;;;23.57;58.63
10476;BME280;26166;48.264;11.436;2022-08-19T09:46:28;95750.66;;;23.57;58.83
10476;BME280;26166;48.264;11.436;2022-08-19T09:49:28;95751.47;;;23.58;59.04
10476;BME280;26166;48.264;11.436;2022-08-19T09:52:29;95754.13;;;23.58;59.30
10476;BME280;26166;48.264;11.436;2022-08-19T09:55:29;95754.13;;;23.58;59.31
10476;BME280;26166;48.264;11.436;2022-08-19T09:58:29;95749.59;;;23.58;59.23
10476;BME280;26166;48.264;11.436;2022-08-19T10:01:30;95753.06;;;23.59;59.15
10476;BME280;26166;48.264;11.436;2022-08-19T10:04:31;95757.38;;;23.60;59.06
10476;BME280;26166;48.264;11.436;2022-08-19T10:08:00;95753.06;;;23.59;58.96
10476;BME280;26166;48.264;11.436;2022-08-19T10:11:01;95749.34;;;23.60;58.93
10476;BME280;26166;48.264;11.436;2022-08-19T10:14:02;95752.81;;;23.60;58.87
10476;BME280;26166;48.264;11.436;2022-08-19T10:17:02;95743.97;;;23.60;58.99
10476;BME280;26166;48.264;11.436;2022-08-19T10:20:02;95753.63;;;23.61;58.84
10476;BME280;26166;48.264;11.436;2022-08-19T10:23:04;95755.75;;;23.59;58.75
10476;BME280;26166;48.264;11.436;2022-08-19T10:26:05;95756.56;;;23.59;58.82
10476;BME280;26166;48.264;11.436;2022-08-19T10:29:06;95760.31;;;23.58;58.86
10476;BME280;26166;48.264;11.436;2022-08-19T10:32:07;95759.50;;;23.58;59.00
10476;BME280;26166;48.264;11.436;2022-08-19T10:35:08;95755.22;;;23.57;58.89
10476;BME280;26166;48.264;11.436;2022-08-19T10:38:08;95761.38;;;23.57;58.96
10476;BME280;26166;48.264;11.436;2022-08-19T10:41:12;95755.22;;;23.57;58.97
10476;BME280;26166;48.264;11.436;2022-08-19T10:44:13;95747.16;;;23.57;59.09
10476;BME280;26166;48.264;11.436;2022-08-19T10:47:13;95742.88;;;23.56;58.99
10476;BME280;26166;48.264;11.436;2022-08-19T10:50:14;95745.03;;;23.59;59.29
10476;BME280;26166;48.264;11.436;2022-08-19T10:53:32;95732.41;;;23.59;59.52
10476;BME280;26166;48.264;11.436;2022-08-19T10:56:33;95735.94;;;23.60;59.44
10476;BME280;26166;48.264;11.436;2022-08-19T10:59:51;95737.53;;;23.61;59.36
10476;BME280;26166;48.264;11.436;2022-08-19T11:02:51;95736.47;;;23.62;59.44
10476;BME280;26166;48.264;11.436;2022-08-19T11:06:01;95735.41;;;23.63;59.54
10476;BME280;26166;48.264;11.436;2022-08-19T11:09:02;95742.38;;;23.64;59.45
10476;BME280;26166;48.264;11.436;2022-08-19T11:12:03;95732.50;;;23.64;59.55
10476;BME280;26166;48.264;11.436;2022-08-19T11:15:03;95738.66;;;23.65;59.38
10476;BME280;26166;48.264;11.436;2022-08-19T11:18:04;95735.41;;;23.63;59.22
10476;BME280;26166;48.264;11.436;2022-08-19T11:24:18;95737.28;;;23.62;59.28
10476;BME280;26166;48.264;11.436;2022-08-19T11:27:20;95728.44;;;23.62;59.29
10476;BME280;26166;48.264;11.436;2022-08-19T11:30:20;95727.63;;;23.61;59.27
10476;BME280;26166;48.264;11.436;2022-08-19T11:33:20;95727.91;;;23.60;59.42
10476;BME280;26166;48.264;11.436;2022-08-19T11:36:20;95731.38;;;23.60;59.31
10476;BME280;26166;48.264;11.436;2022-08-19T11:39:21;95731.63;;;23.59;59.16
10476;BME280;26166;48.264;11.436;2022-08-19T11:42:21;95739.41;;;23.60;59.21
10476;BME280;26166;48.264;11.436;2022-08-19T11:45:40;95745.03;;;23.59;59.32
10476;BME280;26166;48.264;11.436;2022-08-19T11:48:41;95739.66;;;23.59;59.04
10476;BME280;26166;48.264;11.436;2022-08-19T11:51:42;95743.97;;;23.60;59.40
10476;BME280;26166;48.264;11.436;2022-08-19T11:54:45;95730.56;;;23.60;59.76
10476;BME280;26166;48.264;11.436;2022-08-19T11:57:45;95726.00;;;23.60;59.78
10476;BME280;26166;48.264;11.436;2022-08-19T12:00:46;95724.13;;;23.61;59.75
10476;BME280;26166;48.264;11.436;2022-08-19T12:03:47;95733.25;;;23.60;60.00
10476;BME280;26166;48.264;11.436;2022-08-19T12:06:48;95726.00;;;23.60;59.65
10476;BME280;26166;48.264;11.436;2022-08-19T12:09:49;95727.91;;;23.60;59.63
10476;BME280;26166;48.264;11.436;2022-08-19T12:12:50;95720.91;;;23.59;59.67
10476;BME280;26166;48.264;11.436;2022-08-19T12:15:50;95714.72;;;23.58;59.61
10476;BME280;26166;48.264;11.436;2022-08-19T12:18:52;95726.81;;;23.61;59.66
10476;BME280;26166;48.264;11.436;2022-08-19T12:21:54;95726.00;;;23.60;59.43
10476;BME280;26166;48.264;11.436;2022-08-19T12:24:59;95727.91;;;23.60;59.61
10476;BME280;26166;48.264;11.436;2022-08-19T12:28:00;95739.66;;;23.59;59.60
10476;BME280;26166;48.264;11.436;2022-08-19T12:31:01;95742.91;;;23.61;59.57
10476;BME280;26166;48.264;11.436;2022-08-19T12:34:01;95743.72;;;23.61;59.46
10476;BME280;26166;48.264;11.436;2022-08-19T12:37:03;95753.63;;;23.61;59.57
10476;BME280;26166;48.264;11.436;2022-08-19T12:40:04;95759.78;;;23.61;59.45
10476;BME280;26166;48.264;11.436;2022-08-19T12:43:05;95760.06;;;23.60;59.83
10476;BME280;26166;48.264;11.436;2022-08-19T12:46:05;95757.38;;;23.60;59.51
10476;BME280;26166;48.264;11.436;2022-08-19T12:49:05;95765.44;;;23.60;59.58
10476;BME280;26166;48.264;11.436;2022-08-19T12:52:06;95768.09;;;23.60;59.44
10476;BME280;26166;48.264;11.436;2022-08-19T12:55:08;95772.63;;;23.59;59.43
10476;BME280;26166;48.264;11.436;2022-08-19T12:58:08;95768.34;;;23.58;59.46
10476;BME280;26166;48.264;11.436;2022-08-19T13:01:09;95772.63;;;23.59;59.35
10476;BME280;26166;48.264;11.436;2022-08-19T13:04:10;95771.03;;;23.58;59.40
10476;BME280;26166;48.264;11.436;2022-08-19T13:07:11;95778.28;;;23.58;59.35
10476;BME280;26166;48.264;11.436;2022-08-19T13:10:12;95780.94;;;23.58;59.53
10476;BME280;26166;48.264;11.436;2022-08-19T13:13:12;95774.78;;;23.57;59.40
10476;BME280;26166;48.264;11.436;2022-08-19T13:16:13;95771.03;;;23.58;59.44
10476;BME280;26166;48.264;11.436;2022-08-19T13:19:14;95770.22;;;23.58;59.42
10476;BME280;26166;48.264;11.436;2022-08-19T13:22:14;95764.88;;;23.58;59.40
10476;BME280;26166;48.264;11.436;2022-08-19T13:25:14;95770.22;;;23.58;59.46
10476;BME280;26166;48.264;11.436;2022-08-19T13:28:17;95762.97;;;23.58;59.38
10476;BME280;26166;48.264;11.436;2022-08-19T13:31:18;95765.94;;;23.57;59.30
10476;BME280;26166;48.264;11.436;2022-08-19T13:34:37;95767.53;;;23.58;59.56
10476;BME280;26166;48.264;11.436;2022-08-19T13:37:37;95763.25;;;23.57;59.55
10476;BME280;26166;48.264;11.436;2022-08-19T13:40:43;95755.22;;;23.57;59.51
10476;BME280;26166;48.264;11.436;2022-08-19T13:43:44;95763.25;;;23.57;59.47
10476;BME280;26166;48.264;11.436;2022-08-19T13:46:45;95765.94;;;23.57;59.27
10476;BME280;26166;48.264;11.436;2022-08-19T13:49:48;95759.78;;;23.56;59.51
10476;BME280;26166;48.264;11.436;2022-08-19T13:52:49;95753.59;;;23.56;59.16
10476;BME280;26166;48.264;11.436;2022-08-19T13:55:50;95750.13;;;23.55;59.35
10476;BME280;26166;48.264;11.436;2022-08-19T13:58:50;95750.94;;;23.56;59.37
10476;BME280;26166;48.264;11.436;2022-08-19T14:01:51;95749.06;;;23.56;59.55
10476;BME280;26166;48.264;11.436;2022-08-19T14:04:51;95758.97;;;23.56;59.37
10476;BME280;26166;48.264;11.436;2022-08-19T14:07:51;95750.94;;;23.56;59.47
10476;BME280;26166;48.264;11.436;2022-08-19T14:10:51;95750.94;;;23.56;59.19
10476;BME280;26166;48.264;11.436;2022-08-19T14:13:51;95746.38;;;23.56;59.43
10476;BME280;26166;48.264;11.436;2022-08-19T14:16:52;95756.28;;;23.56;59.18
10476;BME280;26166;48.264;11.436;2022-08-19T14:19:58;95750.13;;;23.55;59.34
10476;BME280;26166;48.264;11.436;2022-08-19T14:23:00;95754.66;;;23.55;59.35
10476;BME280;26166;48.264;11.436;2022-08-19T14:26:11;95750.94;;;23.56;59.23
10476;BME280;26166;48.264;11.436;2022-08-19T14:29:12;95760.00;;;23.55;59.30
10476;BME280;26166;48.264;11.436;2022-08-19T14:32:12;95760.84;;;23.55;59.15
10476;BME280;26166;48.264;11.436;2022-08-19T14:35:13;95764.56;;;23.54;59.51
10476;BME280;26166;48.264;11.436;2022-08-19T14:38:15;95779.84;;;23.54;59.16
10476;BME280;26166;48.264;11.436;2022-08-19T14:41:17;95779.84;;;23.54;59.26
10476;BME280;26166;48.264;11.436;2022-08-19T14:44:19;95783.34;;;23.54;59.21
10476;BME280;26166;48.264;11.436;2022-08-19T14:47:19;95791.38;;;23.54;59.25
10476;BME280;26166;48.264;11.436;2022-08-19T14:50:19;95800.50;;;23.53;59.29
10476;BME280;26166;48.264;11.436;2022-08-19T14:53:20;95803.97;;;23.54;59.35
10476;BME280;26166;48.264;11.436;2022-08-19T14:56:22;95802.91;;;23.55;59.00
10476;BME280;26166;48.264;11.436;2022-08-19T14:59:22;95801.28;;;23.54;59.20
10476;BME280;26166;48.264;11.436;2022-08-19T15:02:22;95794.88;;;23.55;59.21
10476;BME280;26166;48.264;11.436;2022-08-19T15:05:23;95789.50;;;23.55;58.98
10476;BME280;26166;48.264;11.436;2022-08-19T15:08:23;95793.25;;;23.54;58.96
10476;BME280;26166;48.264;11.436;2022-08-19T15:11:25;95797.81;;;23.53;59.29
10476;BME280;26166;48.264;11.436;2022-08-19T15:14:27;95794.31;;;23.53;59.18
10476;BME280;26166;48.264;11.436;2022-08-19T15:17:32;95793.53;;;23.52;58.98
10476;BME280;26166;48.264;11.436;2022-08-19T15:20:34;95796.19;;;23.52;59.20
10476;BME280;26166;48.264;11.436;2022-08-19T15:23:34;95803.44;;;23.52;59.18
10476;BME280;26166;48.264;11.436;2022-08-19T15:26:36;95810.41;;;23.53;58.94
10476;BME280;26166;48.264;11.436;2022-08-19T15:29:36;95803.44;;;23.52;59.10
10476;BME280;26166;48.264;11.436;2022-08-19T15:32:36;95802.63;;;23.51;58.91
10476;BME280;26166;48.264;11.436;2022-08-19T15:35:37;95795.41;;;23.52;59.30
10476;BME280;26166;48.264;11.436;2022-08-19T15:38:39;95801.56;;;23.52;58.94
10476;BME280;26166;48.264;11.436;2022-08-19T15:41:41;95798.09;;;23.52;58.81
10476;BME280;26166;48.264;11.436;2022-08-19T15:44:42;95793.53;;;23.52;59.03
10476;BME280;26166;48.264;11.436;2022-08-19T15:47:42;95805.06;;;23.53;59.17
10476;BME280;26166;48.264;11.436;2022-08-19T15:50:43;95805.06;;;23.53;59.10
10476;BME280;26166;48.264;11.436;2022-08-19T15:53:43;95817.38;;;23.54;58.99
10476;BME280;26166;48.264;11.436;2022-08-19T15:56:43;95818.44;;;23.53;59.03
10476;BME280;26166;48.264;11.436;2022-08-19T16:00:02;95810.41;;;23.53;59.04